sensor_id;sensor_type;location;lat;lon;timestamp;P1;durP1;ratioP1;P2;durP2;ratioP2
51921;SDS011;37948;53.260;6.394;2022-10-16T00:01:40;3.42;;;1.23;;
51921;SDS011;37948;53.260;6.394;2022-10-16T00:04:06;6.53;;;1.52;;
51921;SDS011;37948;53.260;6.394;2022-10-16T00:06:32;8.32;;;2.47;;
51921;SDS011;37948;53.260;6.394;2022-10-16T00:08:57;4.80;;;1.65;;
51921;SDS011;37948;53.260;6.394;2022-10-16T00:11:24;5.88;;;1.52;;
51921;SDS011;37948;53.260;6.394;2022-10-16T00:13:57;3.90;;;1.35;;
51921;SDS011;37948;53.260;6.394;2022-10-16T00:16:24;7.10;;;1.80;;
51921;SDS011;37948;53.260;6.394;2022-10-16T00:18:50;6.25;;;1.60;;
51921;SDS011;37948;53.260;6.394;2022-10-16T00:21:22;4.38;;;1.40;;
51921;SDS011;37948;53.260;6.394;2022-10-16T00:23:50;6.47;;;1.40;;
51921;SDS011;37948;53.260;6.394;2022-10-16T00:26:17;5.57;;;1.42;;
51921;SDS011;37948;53.260;6.394;2022-10-16T00:28:47;6.20;;;1.60;;
51921;SDS011;37948;53.260;6.394;2022-10-16T00:31:14;10.48;;;1.27;;
51921;SDS011;37948;53.260;6.394;2022-10-16T00:33:41;5.00;;;1.45;;
51921;SDS011;37948;53.260;6.394;2022-10-16T00:36:07;6.18;;;1.80;;
51921;SDS011;37948;53.260;6.394;2022-10-16T00:38:36;7.93;;;1.38;;
51921;SDS011;37948;53.260;6.394;2022-10-16T00:41:02;6.63;;;1.42;;
51921;SDS011;37948;53.260;6.394;2022-10-16T00:46:01;4.00;;;1.20;;
51921;SDS011;37948;53.260;6.394;2022-10-16T00:48:28;8.98;;;1.23;;
51921;SDS011;37948;53.260;6.394;2022-10-16T00:50:55;3.67;;;1.10;;
51921;SDS011;37948;53.260;6.394;2022-10-16T00:53:21;3.45;;;1.33;;
51921;SDS011;37948;53.260;6.394;2022-10-16T00:55:48;5.30;;;1.55;;
51921;SDS011;37948;53.260;6.394;2022-10-16T00:58:13;4.35;;;1.50;;
51921;SDS011;37948;53.260;6.394;2022-10-16T01:00:39;5.97;;;1.50;;
51921;SDS011;37948;53.260;6.394;2022-10-16T01:03:22;5.07;;;1.80;;
51921;SDS011;37948;53.260;6.394;2022-10-16T01:05:59;8.30;;;1.40;;
51921;SDS011;37948;53.260;6.394;2022-10-16T01:09:12;5.45;;;1.35;;
51921;SDS011;37948;53.260;6.394;2022-10-16T01:11:32;4.35;;;1.48;;
51921;SDS011;37948;53.260;6.394;2022-10-16T01:14:26;8.75;;;1.75;;
51921;SDS011;37948;53.260;6.394;2022-10-16T01:17:04;5.03;;;1.05;;
51921;SDS011;37948;53.260;6.394;2022-10-16T01:19:50;2.95;;;1.30;;
51921;SDS011;37948;53.260;6.394;2022-10-16T01:22:21;4.45;;;1.30;;
51921;SDS011;37948;53.260;6.394;2022-10-16T01:24:50;7.38;;;1.52;;
51921;SDS011;37948;53.260;6.394;2022-10-16T01:27:21;2.05;;;0.95;;
51921;SDS011;37948;53.260;6.394;2022-10-16T01:30:04;4.10;;;1.33;;
51921;SDS011;37948;53.260;6.394;2022-10-16T01:32:46;4.13;;;1.20;;
51921;SDS011;37948;53.260;6.394;2022-10-16T01:38:23;5.68;;;1.25;;
51921;SDS011;37948;53.260;6.394;2022-10-16T01:41:00;7.35;;;1.70;;
51921;SDS011;37948;53.260;6.394;2022-10-16T01:43:36;1.25;;;0.85;;
51921;SDS011;37948;53.260;6.394;2022-10-16T01:46:08;12.05;;;1.58;;
51921;SDS011;37948;53.260;6.394;2022-10-16T01:48:37;3.85;;;1.30;;
51921;SDS011;37948;53.260;6.394;2022-10-16T01:51:11;4.90;;;1.65;;
51921;SDS011;37948;53.260;6.394;2022-10-16T01:53:39;4.10;;;1.23;;
51921;SDS011;37948;53.260;6.394;2022-10-16T01:56:08;1.83;;;1.20;;
51921;SDS011;37948;53.260;6.394;2022-10-16T01:58:45;3.80;;;1.08;;
51921;SDS011;37948;53.260;6.394;2022-10-16T02:01:16;6.00;;;1.20;;
51921;SDS011;37948;53.260;6.394;2022-10-16T02:03:45;7.15;;;1.13;;
51921;SDS011;37948;53.260;6.394;2022-10-16T02:06:15;7.93;;;1.52;;
51921;SDS011;37948;53.260;6.394;2022-10-16T02:08:41;7.75;;;1.70;;
51921;SDS011;37948;53.260;6.394;2022-10-16T02:11:09;4.45;;;1.38;;
51921;SDS011;37948;53.260;6.394;2022-10-16T02:16:13;1.60;;;1.10;;
51921;SDS011;37948;53.260;6.394;2022-10-16T02:18:39;3.63;;;1.10;;
51921;SDS011;37948;53.260;6.394;2022-10-16T02:21:10;4.32;;;1.27;;
51921;SDS011;37948;53.260;6.394;2022-10-16T02:26:27;2.13;;;1.02;;
51921;SDS011;37948;53.260;6.394;2022-10-16T02:29:14;4.05;;;1.42;;
51921;SDS011;37948;53.260;6.394;2022-10-16T02:31:45;4.35;;;1.75;;
51921;SDS011;37948;53.260;6.394;2022-10-16T02:34:16;3.55;;;1.27;;
51921;SDS011;37948;53.260;6.394;2022-10-16T02:36:43;2.90;;;1.30;;
51921;SDS011;37948;53.260;6.394;2022-10-16T02:39:10;4.28;;;1.80;;
51921;SDS011;37948;53.260;6.394;2022-10-16T02:41:36;5.32;;;1.25;;
51921;SDS011;37948;53.260;6.394;2022-10-16T02:44:02;6.70;;;1.70;;
51921;SDS011;37948;53.260;6.394;2022-10-16T02:46:28;2.72;;;1.50;;
51921;SDS011;37948;53.260;6.394;2022-10-16T02:48:53;3.83;;;1.30;;
51921;SDS011;37948;53.260;6.394;2022-10-16T02:51:19;2.33;;;1.10;;
51921;SDS011;37948;53.260;6.394;2022-10-16T02:53:44;5.35;;;1.30;;
51921;SDS011;37948;53.260;6.394;2022-10-16T02:56:10;4.32;;;1.30;;
51921;SDS011;37948;53.260;6.394;2022-10-16T02:58:36;5.63;;;1.42;;
51921;SDS011;37948;53.260;6.394;2022-10-16T03:01:01;2.97;;;1.02;;
51921;SDS011;37948;53.260;6.394;2022-10-16T03:03:27;2.55;;;1.23;;
51921;SDS011;37948;53.260;6.394;2022-10-16T03:05:52;5.07;;;1.38;;
51921;SDS011;37948;53.260;6.394;2022-10-16T03:08:18;4.68;;;1.17;;
51921;SDS011;37948;53.260;6.394;2022-10-16T03:10:48;4.80;;;1.30;;
51921;SDS011;37948;53.260;6.394;2022-10-16T03:13:14;5.22;;;1.77;;
51921;SDS011;37948;53.260;6.394;2022-10-16T03:15:40;1.77;;;1.20;;
51921;SDS011;37948;53.260;6.394;2022-10-16T03:18:05;3.03;;;1.17;;
51921;SDS011;37948;53.260;6.394;2022-10-16T03:20:31;5.50;;;1.42;;
51921;SDS011;37948;53.260;6.394;2022-10-16T03:22:56;3.53;;;1.80;;
51921;SDS011;37948;53.260;6.394;2022-10-16T03:25:22;5.53;;;1.55;;
51921;SDS011;37948;53.260;6.394;2022-10-16T03:27:48;10.55;;;1.73;;
51921;SDS011;37948;53.260;6.394;2022-10-16T03:30:13;5.78;;;1.55;;
51921;SDS011;37948;53.260;6.394;2022-10-16T03:32:39;4.57;;;1.55;;
51921;SDS011;37948;53.260;6.394;2022-10-16T03:35:04;3.45;;;1.40;;
51921;SDS011;37948;53.260;6.394;2022-10-16T03:37:30;10.02;;;1.50;;
51921;SDS011;37948;53.260;6.394;2022-10-16T03:39:56;4.43;;;1.30;;
51921;SDS011;37948;53.260;6.394;2022-10-16T03:42:21;3.38;;;0.90;;
51921;SDS011;37948;53.260;6.394;2022-10-16T03:44:47;3.20;;;1.38;;
51921;SDS011;37948;53.260;6.394;2022-10-16T03:47:13;4.55;;;1.30;;
51921;SDS011;37948;53.260;6.394;2022-10-16T03:49:38;2.15;;;1.15;;
51921;SDS011;37948;53.260;6.394;2022-10-16T03:52:04;7.13;;;1.25;;
51921;SDS011;37948;53.260;6.394;2022-10-16T03:54:29;5.10;;;1.58;;
51921;SDS011;37948;53.260;6.394;2022-10-16T03:56:55;1.48;;;1.00;;
51921;SDS011;37948;53.260;6.394;2022-10-16T03:59:20;1.98;;;1.10;;
51921;SDS011;37948;53.260;6.394;2022-10-16T04:01:46;6.25;;;1.38;;
51921;SDS011;37948;53.260;6.394;2022-10-16T04:04:12;4.35;;;1.20;;
51921;SDS011;37948;53.260;6.394;2022-10-16T04:06:37;7.85;;;1.98;;
51921;SDS011;37948;53.260;6.394;2022-10-16T04:09:03;2.45;;;1.45;;
51921;SDS011;37948;53.260;6.394;2022-10-16T04:11:28;4.07;;;1.40;;
51921;SDS011;37948;53.260;6.394;2022-10-16T04:13:54;3.15;;;1.48;;
51921;SDS011;37948;53.260;6.394;2022-10-16T04:16:20;2.20;;;1.20;;
51921;SDS011;37948;53.260;6.394;2022-10-16T04:18:45;1.85;;;1.10;;
51921;SDS011;37948;53.260;6.394;2022-10-16T04:21:11;3.92;;;1.40;;
51921;SDS011;37948;53.260;6.394;2022-10-16T04:23:36;1.90;;;1.13;;
51921;SDS011;37948;53.260;6.394;2022-10-16T04:26:02;5.60;;;1.42;;
51921;SDS011;37948;53.260;6.394;2022-10-16T04:28:28;4.95;;;1.50;;
51921;SDS011;37948;53.260;6.394;2022-10-16T04:30:53;4.18;;;1.08;;
51921;SDS011;37948;53.260;6.394;2022-10-16T04:33:19;5.65;;;1.45;;
51921;SDS011;37948;53.260;6.394;2022-10-16T04:35:45;5.05;;;1.42;;
51921;SDS011;37948;53.260;6.394;2022-10-16T04:38:10;3.20;;;1.48;;
51921;SDS011;37948;53.260;6.394;2022-10-16T04:40:36;1.50;;;1.40;;
51921;SDS011;37948;53.260;6.394;2022-10-16T04:43:04;1.95;;;1.13;;
51921;SDS011;37948;53.260;6.394;2022-10-16T04:45:30;3.63;;;1.10;;
51921;SDS011;37948;53.260;6.394;2022-10-16T04:47:56;4.47;;;1.33;;
51921;SDS011;37948;53.260;6.394;2022-10-16T04:50:23;6.07;;;1.38;;
51921;SDS011;37948;53.260;6.394;2022-10-16T04:52:48;6.15;;;1.38;;
51921;SDS011;37948;53.260;6.394;2022-10-16T04:55:14;2.45;;;1.20;;
51921;SDS011;37948;53.260;6.394;2022-10-16T04:57:40;2.97;;;1.30;;
51921;SDS011;37948;53.260;6.394;2022-10-16T05:00:06;2.70;;;1.42;;
51921;SDS011;37948;53.260;6.394;2022-10-16T05:02:33;6.15;;;1.48;;
51921;SDS011;37948;53.260;6.394;2022-10-16T05:04:58;6.57;;;1.17;;
51921;SDS011;37948;53.260;6.394;2022-10-16T05:07:24;3.40;;;1.50;;
51921;SDS011;37948;53.260;6.394;2022-10-16T05:09:50;6.45;;;1.25;;
51921;SDS011;37948;53.260;6.394;2022-10-16T05:12:15;3.80;;;1.55;;
51921;SDS011;37948;53.260;6.394;2022-10-16T05:14:41;8.65;;;1.60;;
51921;SDS011;37948;53.260;6.394;2022-10-16T05:17:06;2.88;;;1.33;;
51921;SDS011;37948;53.260;6.394;2022-10-16T05:19:32;3.17;;;1.33;;
51921;SDS011;37948;53.260;6.394;2022-10-16T05:21:57;6.78;;;1.63;;
51921;SDS011;37948;53.260;6.394;2022-10-16T05:24:23;6.25;;;1.33;;
51921;SDS011;37948;53.260;6.394;2022-10-16T05:26:49;2.10;;;1.27;;
51921;SDS011;37948;53.260;6.394;2022-10-16T05:29:15;3.95;;;1.30;;
51921;SDS011;37948;53.260;6.394;2022-10-16T05:31:40;5.65;;;1.60;;
51921;SDS011;37948;53.260;6.394;2022-10-16T05:34:06;6.00;;;1.35;;
51921;SDS011;37948;53.260;6.394;2022-10-16T05:36:32;6.68;;;1.40;;
51921;SDS011;37948;53.260;6.394;2022-10-16T05:38:57;9.02;;;2.10;;
51921;SDS011;37948;53.260;6.394;2022-10-16T05:41:23;1.80;;;1.70;;
51921;SDS011;37948;53.260;6.394;2022-10-16T05:43:50;3.53;;;1.75;;
51921;SDS011;37948;53.260;6.394;2022-10-16T05:46:16;5.45;;;2.00;;
51921;SDS011;37948;53.260;6.394;2022-10-16T05:48:42;1.95;;;1.20;;
51921;SDS011;37948;53.260;6.394;2022-10-16T05:51:12;7.60;;;1.90;;
51921;SDS011;37948;53.260;6.394;2022-10-16T05:53:38;7.35;;;1.65;;
51921;SDS011;37948;53.260;6.394;2022-10-16T05:56:05;5.55;;;1.75;;
51921;SDS011;37948;53.260;6.394;2022-10-16T05:58:35;3.90;;;2.15;;
51921;SDS011;37948;53.260;6.394;2022-10-16T06:03:41;8.65;;;2.08;;
51921;SDS011;37948;53.260;6.394;2022-10-16T06:06:17;2.63;;;1.70;;
51921;SDS011;37948;53.260;6.394;2022-10-16T06:08:45;4.35;;;1.85;;
51921;SDS011;37948;53.260;6.394;2022-10-16T06:11:13;3.42;;;2.00;;
51921;SDS011;37948;53.260;6.394;2022-10-16T06:13:40;5.80;;;1.90;;
51921;SDS011;37948;53.260;6.394;2022-10-16T06:16:07;5.53;;;1.85;;
51921;SDS011;37948;53.260;6.394;2022-10-16T06:18:33;4.13;;;2.10;;
51921;SDS011;37948;53.260;6.394;2022-10-16T06:20:59;12.38;;;2.72;;
51921;SDS011;37948;53.260;6.394;2022-10-16T06:23:31;4.32;;;2.28;;
51921;SDS011;37948;53.260;6.394;2022-10-16T06:26:03;7.50;;;1.90;;
51921;SDS011;37948;53.260;6.394;2022-10-16T06:28:34;3.45;;;1.83;;
51921;SDS011;37948;53.260;6.394;2022-10-16T06:31:00;3.70;;;2.17;;
51921;SDS011;37948;53.260;6.394;2022-10-16T06:33:26;3.42;;;2.33;;
51921;SDS011;37948;53.260;6.394;2022-10-16T06:35:52;3.50;;;1.95;;
51921;SDS011;37948;53.260;6.394;2022-10-16T06:38:17;4.78;;;2.40;;
51921;SDS011;37948;53.260;6.394;2022-10-16T06:40:43;6.35;;;2.28;;
51921;SDS011;37948;53.260;6.394;2022-10-16T06:43:08;5.72;;;2.10;;
51921;SDS011;37948;53.260;6.394;2022-10-16T06:45:34;4.85;;;1.92;;
51921;SDS011;37948;53.260;6.394;2022-10-16T06:48:00;4.90;;;2.10;;
51921;SDS011;37948;53.260;6.394;2022-10-16T06:50:25;3.97;;;2.00;;
51921;SDS011;37948;53.260;6.394;2022-10-16T06:52:51;5.00;;;2.13;;
51921;SDS011;37948;53.260;6.394;2022-10-16T06:55:16;7.10;;;2.65;;
51921;SDS011;37948;53.260;6.394;2022-10-16T06:57:42;6.53;;;2.10;;
51921;SDS011;37948;53.260;6.394;2022-10-16T07:00:08;7.28;;;2.00;;
51921;SDS011;37948;53.260;6.394;2022-10-16T07:02:34;6.78;;;2.45;;
51921;SDS011;37948;53.260;6.394;2022-10-16T07:05:00;4.10;;;2.05;;
51921;SDS011;37948;53.260;6.394;2022-10-16T07:07:25;5.53;;;1.77;;
51921;SDS011;37948;53.260;6.394;2022-10-16T07:09:51;7.25;;;1.95;;
51921;SDS011;37948;53.260;6.394;2022-10-16T07:12:17;10.13;;;2.08;;
51921;SDS011;37948;53.260;6.394;2022-10-16T07:14:43;4.82;;;2.00;;
51921;SDS011;37948;53.260;6.394;2022-10-16T07:17:08;5.20;;;1.80;;
51921;SDS011;37948;53.260;6.394;2022-10-16T07:19:34;5.25;;;2.08;;
51921;SDS011;37948;53.260;6.394;2022-10-16T07:22:00;5.15;;;1.85;;
51921;SDS011;37948;53.260;6.394;2022-10-16T07:24:26;6.43;;;2.25;;
51921;SDS011;37948;53.260;6.394;2022-10-16T07:26:51;6.15;;;1.90;;
51921;SDS011;37948;53.260;6.394;2022-10-16T07:29:18;6.40;;;2.17;;
51921;SDS011;37948;53.260;6.394;2022-10-16T07:31:45;8.00;;;1.35;;
51921;SDS011;37948;53.260;6.394;2022-10-16T07:34:12;9.05;;;1.88;;
51921;SDS011;37948;53.260;6.394;2022-10-16T07:36:39;4.72;;;1.52;;
51921;SDS011;37948;53.260;6.394;2022-10-16T07:39:05;6.57;;;1.60;;
51921;SDS011;37948;53.260;6.394;2022-10-16T07:41:31;4.97;;;1.75;;
51921;SDS011;37948;53.260;6.394;2022-10-16T07:43:58;3.63;;;1.30;;
51921;SDS011;37948;53.260;6.394;2022-10-16T07:46:27;7.60;;;1.55;;
51921;SDS011;37948;53.260;6.394;2022-10-16T07:48:53;4.85;;;1.40;;
51921;SDS011;37948;53.260;6.394;2022-10-16T07:51:20;5.38;;;2.00;;
51921;SDS011;37948;53.260;6.394;2022-10-16T07:53:49;7.72;;;2.38;;
51921;SDS011;37948;53.260;6.394;2022-10-16T07:56:16;8.23;;;2.13;;
51921;SDS011;37948;53.260;6.394;2022-10-16T07:58:43;4.35;;;1.80;;
51921;SDS011;37948;53.260;6.394;2022-10-16T08:01:09;6.22;;;1.77;;
51921;SDS011;37948;53.260;6.394;2022-10-16T08:03:37;3.33;;;1.55;;
51921;SDS011;37948;53.260;6.394;2022-10-16T08:06:03;7.00;;;2.08;;
51921;SDS011;37948;53.260;6.394;2022-10-16T08:08:29;3.88;;;1.90;;
51921;SDS011;37948;53.260;6.394;2022-10-16T08:10:55;3.33;;;1.83;;
51921;SDS011;37948;53.260;6.394;2022-10-16T08:13:21;2.85;;;1.70;;
51921;SDS011;37948;53.260;6.394;2022-10-16T08:15:47;5.90;;;2.13;;
51921;SDS011;37948;53.260;6.394;2022-10-16T08:18:13;4.22;;;1.83;;
51921;SDS011;37948;53.260;6.394;2022-10-16T08:20:40;8.70;;;2.50;;
51921;SDS011;37948;53.260;6.394;2022-10-16T08:23:07;6.80;;;2.10;;
51921;SDS011;37948;53.260;6.394;2022-10-16T08:25:35;2.95;;;1.77;;
51921;SDS011;37948;53.260;6.394;2022-10-16T08:28:02;13.85;;;2.30;;
51921;SDS011;37948;53.260;6.394;2022-10-16T08:30:32;3.35;;;1.80;;
51921;SDS011;37948;53.260;6.394;2022-10-16T08:32:58;6.10;;;1.92;;
51921;SDS011;37948;53.260;6.394;2022-10-16T08:35:24;5.18;;;1.92;;
51921;SDS011;37948;53.260;6.394;2022-10-16T08:37:50;2.53;;;1.67;;
51921;SDS011;37948;53.260;6.394;2022-10-16T08:40:20;5.93;;;1.83;;
51921;SDS011;37948;53.260;6.394;2022-10-16T08:46:34;8.00;;;1.92;;
51921;SDS011;37948;53.260;6.394;2022-10-16T08:48:56;6.53;;;1.92;;
51921;SDS011;37948;53.260;6.394;2022-10-16T08:51:25;5.35;;;1.73;;
51921;SDS011;37948;53.260;6.394;2022-10-16T08:53:57;8.60;;;1.90;;
51921;SDS011;37948;53.260;6.394;2022-10-16T08:56:26;7.57;;;1.65;;
51921;SDS011;37948;53.260;6.394;2022-10-16T08:58:52;5.13;;;2.05;;
51921;SDS011;37948;53.260;6.394;2022-10-16T09:01:20;6.30;;;1.70;;
51921;SDS011;37948;53.260;6.394;2022-10-16T09:06:43;4.03;;;1.95;;
51921;SDS011;37948;53.260;6.394;2022-10-16T09:14:46;4.57;;;2.15;;
51921;SDS011;37948;53.260;6.394;2022-10-16T09:17:22;8.43;;;2.50;;
51921;SDS011;37948;53.260;6.394;2022-10-16T09:23:07;6.72;;;1.50;;
51921;SDS011;37948;53.260;6.394;2022-10-16T09:25:37;10.30;;;2.08;;
51921;SDS011;37948;53.260;6.394;2022-10-16T09:28:07;11.10;;;2.53;;
51921;SDS011;37948;53.260;6.394;2022-10-16T09:30:34;8.88;;;2.03;;
51921;SDS011;37948;53.260;6.394;2022-10-16T09:32:59;8.13;;;2.08;;
51921;SDS011;37948;53.260;6.394;2022-10-16T09:38:25;15.60;;;1.92;;
51921;SDS011;37948;53.260;6.394;2022-10-16T09:40:53;8.95;;;1.90;;
51921;SDS011;37948;53.260;6.394;2022-10-16T09:43:23;13.70;;;2.13;;
51921;SDS011;37948;53.260;6.394;2022-10-16T09:48:33;7.40;;;2.20;;
51921;SDS011;37948;53.260;6.394;2022-10-16T09:51:03;11.60;;;1.75;;
51921;SDS011;37948;53.260;6.394;2022-10-16T09:53:41;12.82;;;2.53;;
51921;SDS011;37948;53.260;6.394;2022-10-16T09:56:10;12.85;;;2.30;;
51921;SDS011;37948;53.260;6.394;2022-10-16T09:58:41;12.55;;;2.47;;
51921;SDS011;37948;53.260;6.394;2022-10-16T10:01:13;9.25;;;1.98;;
51921;SDS011;37948;53.260;6.394;2022-10-16T10:03:40;17.80;;;2.30;;
51921;SDS011;37948;53.260;6.394;2022-10-16T10:06:23;13.48;;;2.42;;
51921;SDS011;37948;53.260;6.394;2022-10-16T10:08:52;8.80;;;2.15;;
51921;SDS011;37948;53.260;6.394;2022-10-16T10:11:42;13.15;;;2.55;;
51921;SDS011;37948;53.260;6.394;2022-10-16T10:14:23;11.43;;;2.33;;
51921;SDS011;37948;53.260;6.394;2022-10-16T10:16:52;10.00;;;2.20;;
51921;SDS011;37948;53.260;6.394;2022-10-16T10:19:27;16.88;;;2.22;;
51921;SDS011;37948;53.260;6.394;2022-10-16T10:21:52;18.58;;;3.08;;
51921;SDS011;37948;53.260;6.394;2022-10-16T10:24:18;12.13;;;2.50;;
51921;SDS011;37948;53.260;6.394;2022-10-16T10:29:28;10.65;;;2.15;;
51921;SDS011;37948;53.260;6.394;2022-10-16T10:32:11;16.10;;;2.53;;
51921;SDS011;37948;53.260;6.394;2022-10-16T10:40:56;18.80;;;2.40;;
51921;SDS011;37948;53.260;6.394;2022-10-16T10:46:32;10.88;;;2.83;;
51921;SDS011;37948;53.260;6.394;2022-10-16T10:52:44;10.98;;;2.25;;
51921;SDS011;37948;53.260;6.394;2022-10-16T10:54:55;9.38;;;1.50;;
51921;SDS011;37948;53.260;6.394;2022-10-16T10:57:25;9.43;;;2.05;;
51921;SDS011;37948;53.260;6.394;2022-10-16T11:02:50;13.50;;;2.10;;
51921;SDS011;37948;53.260;6.394;2022-10-16T11:05:38;10.02;;;2.63;;
51921;SDS011;37948;53.260;6.394;2022-10-16T11:08:29;13.48;;;2.85;;
51921;SDS011;37948;53.260;6.394;2022-10-16T11:11:10;10.15;;;2.03;;
51921;SDS011;37948;53.260;6.394;2022-10-16T11:14:24;8.15;;;1.75;;
51921;SDS011;37948;53.260;6.394;2022-10-16T11:16:48;12.52;;;2.25;;
51921;SDS011;37948;53.260;6.394;2022-10-16T11:19:55;13.57;;;2.33;;
51921;SDS011;37948;53.260;6.394;2022-10-16T11:27:52;16.02;;;2.75;;
51921;SDS011;37948;53.260;6.394;2022-10-16T11:30:43;11.77;;;2.28;;
51921;SDS011;37948;53.260;6.394;2022-10-16T11:33:27;11.88;;;2.17;;
51921;SDS011;37948;53.260;6.394;2022-10-16T11:36:12;10.70;;;2.22;;
51921;SDS011;37948;53.260;6.394;2022-10-16T11:38:55;12.65;;;2.05;;
51921;SDS011;37948;53.260;6.394;2022-10-16T11:41:26;15.50;;;2.95;;
51921;SDS011;37948;53.260;6.394;2022-10-16T11:46:31;14.15;;;2.80;;
51921;SDS011;37948;53.260;6.394;2022-10-16T11:49:03;18.98;;;3.10;;
51921;SDS011;37948;53.260;6.394;2022-10-16T11:57:05;8.40;;;2.42;;
51921;SDS011;37948;53.260;6.394;2022-10-16T11:59:42;15.40;;;2.42;;
51921;SDS011;37948;53.260;6.394;2022-10-16T12:02:30;9.35;;;2.35;;
51921;SDS011;37948;53.260;6.394;2022-10-16T12:10:30;14.50;;;2.63;;
51921;SDS011;37948;53.260;6.394;2022-10-16T12:13:26;12.35;;;2.33;;
51921;SDS011;37948;53.260;6.394;2022-10-16T12:16:19;14.43;;;2.58;;
51921;SDS011;37948;53.260;6.394;2022-10-16T12:18:47;12.13;;;2.42;;
51921;SDS011;37948;53.260;6.394;2022-10-16T12:21:14;8.68;;;2.20;;
51921;SDS011;37948;53.260;6.394;2022-10-16T12:26:14;13.43;;;2.40;;
51921;SDS011;37948;53.260;6.394;2022-10-16T12:28:53;13.32;;;2.03;;
51921;SDS011;37948;53.260;6.394;2022-10-16T12:31:20;11.40;;;2.28;;
51921;SDS011;37948;53.260;6.394;2022-10-16T12:33:59;11.80;;;2.42;;
51921;SDS011;37948;53.260;6.394;2022-10-16T12:36:28;8.73;;;1.77;;
51921;SDS011;37948;53.260;6.394;2022-10-16T12:38:56;9.98;;;2.08;;
51921;SDS011;37948;53.260;6.394;2022-10-16T12:41:25;12.98;;;1.85;;
51921;SDS011;37948;53.260;6.394;2022-10-16T12:43:55;10.20;;;2.08;;
51921;SDS011;37948;53.260;6.394;2022-10-16T12:49:32;12.70;;;2.50;;
51921;SDS011;37948;53.260;6.394;2022-10-16T12:51:55;6.20;;;1.08;;
51921;SDS011;37948;53.260;6.394;2022-10-16T12:54:27;11.13;;;2.38;;
51921;SDS011;37948;53.260;6.394;2022-10-16T13:08:11;10.55;;;2.20;;
51921;SDS011;37948;53.260;6.394;2022-10-16T13:14:05;12.38;;;2.00;;
51921;SDS011;37948;53.260;6.394;2022-10-16T13:25:12;8.82;;;2.00;;
51921;SDS011;37948;53.260;6.394;2022-10-16T13:30:42;12.82;;;2.67;;
51921;SDS011;37948;53.260;6.394;2022-10-16T13:36:01;12.00;;;2.33;;
51921;SDS011;37948;53.260;6.394;2022-10-16T13:38:32;9.88;;;1.77;;
51921;SDS011;37948;53.260;6.394;2022-10-16T13:43:45;10.07;;;1.83;;
51921;SDS011;37948;53.260;6.394;2022-10-16T13:46:16;7.00;;;1.52;;
51921;SDS011;37948;53.260;6.394;2022-10-16T13:48:59;14.77;;;1.65;;
51921;SDS011;37948;53.260;6.394;2022-10-16T13:51:27;8.30;;;1.80;;
51921;SDS011;37948;53.260;6.394;2022-10-16T13:53:54;8.85;;;1.92;;
51921;SDS011;37948;53.260;6.394;2022-10-16T13:56:22;6.22;;;1.90;;
51921;SDS011;37948;53.260;6.394;2022-10-16T13:59:03;9.63;;;2.08;;
51921;SDS011;37948;53.260;6.394;2022-10-16T14:04:01;10.77;;;1.88;;
51921;SDS011;37948;53.260;6.394;2022-10-16T14:06:33;6.80;;;1.80;;
51921;SDS011;37948;53.260;6.394;2022-10-16T14:09:07;11.70;;;1.90;;
51921;SDS011;37948;53.260;6.394;2022-10-16T14:11:47;8.35;;;2.03;;
51921;SDS011;37948;53.260;6.394;2022-10-16T14:14:16;6.13;;;1.10;;
51921;SDS011;37948;53.260;6.394;2022-10-16T14:16:43;11.32;;;2.13;;
51921;SDS011;37948;53.260;6.394;2022-10-16T14:19:24;11.77;;;2.72;;
51921;SDS011;37948;53.260;6.394;2022-10-16T14:21:51;6.85;;;1.85;;
51921;SDS011;37948;53.260;6.394;2022-10-16T14:26:56;10.25;;;2.53;;
51921;SDS011;37948;53.260;6.394;2022-10-16T14:29:22;15.25;;;2.30;;
51921;SDS011;37948;53.260;6.394;2022-10-16T14:31:56;11.93;;;2.13;;
51921;SDS011;37948;53.260;6.394;2022-10-16T14:36:56;11.65;;;2.13;;
51921;SDS011;37948;53.260;6.394;2022-10-16T14:39:33;12.90;;;2.03;;
51921;SDS011;37948;53.260;6.394;2022-10-16T14:41:59;11.73;;;3.70;;
51921;SDS011;37948;53.260;6.394;2022-10-16T14:44:42;7.95;;;1.90;;
51921;SDS011;37948;53.260;6.394;2022-10-16T14:47:09;14.80;;;1.90;;
51921;SDS011;37948;53.260;6.394;2022-10-16T14:49:47;12.95;;;1.95;;
51921;SDS011;37948;53.260;6.394;2022-10-16T14:52:13;17.35;;;2.13;;
51921;SDS011;37948;53.260;6.394;2022-10-16T14:54:39;22.38;;;4.00;;
51921;SDS011;37948;53.260;6.394;2022-10-16T14:57:05;8.52;;;1.35;;
51921;SDS011;37948;53.260;6.394;2022-10-16T14:59:38;10.07;;;1.80;;
51921;SDS011;37948;53.260;6.394;2022-10-16T15:02:30;6.75;;;1.70;;
51921;SDS011;37948;53.260;6.394;2022-10-16T15:04:56;11.45;;;2.65;;
51921;SDS011;37948;53.260;6.394;2022-10-16T15:07:22;8.02;;;1.98;;
51921;SDS011;37948;53.260;6.394;2022-10-16T15:09:47;16.10;;;2.80;;
51921;SDS011;37948;53.260;6.394;2022-10-16T15:12:13;10.38;;;1.80;;
51921;SDS011;37948;53.260;6.394;2022-10-16T15:14:39;11.85;;;2.25;;
51921;SDS011;37948;53.260;6.394;2022-10-16T15:17:04;13.27;;;2.55;;
51921;SDS011;37948;53.260;6.394;2022-10-16T15:19:30;11.60;;;2.25;;
51921;SDS011;37948;53.260;6.394;2022-10-16T15:21:56;6.85;;;1.65;;
51921;SDS011;37948;53.260;6.394;2022-10-16T15:24:21;10.18;;;1.90;;
51921;SDS011;37948;53.260;6.394;2022-10-16T15:26:47;34.83;;;2.88;;
51921;SDS011;37948;53.260;6.394;2022-10-16T15:29:14;14.88;;;2.17;;
51921;SDS011;37948;53.260;6.394;2022-10-16T15:31:40;16.98;;;2.35;;
51921;SDS011;37948;53.260;6.394;2022-10-16T15:34:08;12.65;;;2.10;;
51921;SDS011;37948;53.260;6.394;2022-10-16T15:36:35;9.60;;;1.70;;
51921;SDS011;37948;53.260;6.394;2022-10-16T15:39:03;10.30;;;1.90;;
51921;SDS011;37948;53.260;6.394;2022-10-16T15:41:30;8.90;;;2.15;;
51921;SDS011;37948;53.260;6.394;2022-10-16T15:43:56;14.05;;;2.72;;
51921;SDS011;37948;53.260;6.394;2022-10-16T15:46:22;12.30;;;1.90;;
51921;SDS011;37948;53.260;6.394;2022-10-16T15:48:49;11.38;;;1.88;;
51921;SDS011;37948;53.260;6.394;2022-10-16T15:51:15;15.88;;;2.75;;
51921;SDS011;37948;53.260;6.394;2022-10-16T15:53:42;8.23;;;1.50;;
51921;SDS011;37948;53.260;6.394;2022-10-16T15:56:08;12.43;;;1.92;;
51921;SDS011;37948;53.260;6.394;2022-10-16T15:58:36;12.10;;;2.00;;
51921;SDS011;37948;53.260;6.394;2022-10-16T16:01:02;8.05;;;2.25;;
51921;SDS011;37948;53.260;6.394;2022-10-16T16:03:31;14.18;;;1.70;;
51921;SDS011;37948;53.260;6.394;2022-10-16T16:05:57;10.48;;;2.45;;
51921;SDS011;37948;53.260;6.394;2022-10-16T16:08:28;8.05;;;1.67;;
51921;SDS011;37948;53.260;6.394;2022-10-16T16:10:57;9.57;;;2.03;;
51921;SDS011;37948;53.260;6.394;2022-10-16T16:13:23;6.68;;;2.35;;
51921;SDS011;37948;53.260;6.394;2022-10-16T16:15:49;11.27;;;1.77;;
51921;SDS011;37948;53.260;6.394;2022-10-16T16:18:15;13.80;;;2.70;;
51921;SDS011;37948;53.260;6.394;2022-10-16T16:20:40;12.50;;;2.58;;
51921;SDS011;37948;53.260;6.394;2022-10-16T16:23:06;12.02;;;2.55;;
51921;SDS011;37948;53.260;6.394;2022-10-16T16:25:31;13.77;;;2.85;;
51921;SDS011;37948;53.260;6.394;2022-10-16T16:27:57;9.25;;;2.83;;
51921;SDS011;37948;53.260;6.394;2022-10-16T16:30:22;13.20;;;4.82;;
51921;SDS011;37948;53.260;6.394;2022-10-16T16:32:48;20.13;;;5.28;;
51921;SDS011;37948;53.260;6.394;2022-10-16T16:35:14;15.07;;;3.95;;
51921;SDS011;37948;53.260;6.394;2022-10-16T16:37:39;9.85;;;4.38;;
51921;SDS011;37948;53.260;6.394;2022-10-16T16:40:05;9.30;;;3.40;;
51921;SDS011;37948;53.260;6.394;2022-10-16T16:42:30;10.80;;;3.90;;
51921;SDS011;37948;53.260;6.394;2022-10-16T16:44:56;13.98;;;5.22;;
51921;SDS011;37948;53.260;6.394;2022-10-16T16:47:22;16.67;;;5.82;;
51921;SDS011;37948;53.260;6.394;2022-10-16T16:49:47;18.08;;;5.82;;
51921;SDS011;37948;53.260;6.394;2022-10-16T16:52:13;17.15;;;5.47;;